Time;durP1;ratioP1;P1;durP2;ratioP2;P2;SDS_P1;SDS_P2;PMS_P1;PMS_P2;Temp;Humidity;BMP_temperature;BMP_pressure;BME280_temperature;BME280_humidity;BME280_pressure;Samples;Min_cycle;Max_cycle;Signal;HPM_P1;HPM_P2
2023/10/15 00:00:03;;;;;;;9.20;5.47;;;;;;;;;;10054592;28;20128;-73
2023/10/15 00:04:55;;;;;;;13.07;6.53;;;;;;;;;;10051551;28;20069;-74
2023/10/15 00:09:50;;;;;;;7.05;5.50;;;;;;;;;;10052715;28;20053;-74
2023/10/15 00:14:42;;;;;;;10.32;5.90;;;;;;;;;;10051302;28;20352;-74
2023/10/15 00:19:33;;;;;;;14.30;7.30;;;;;;;;;;10054784;28;20381;-74
2023/10/15 00:24:25;;;;;;;12.02;5.78;;;;;;;;;;10051914;28;20053;-75
2023/10/15 00:29:17;;;;;;;11.77;6.22;;;;;;;;;;10052998;28;20103;-75
2023/10/15 00:34:12;;;;;;;13.80;6.57;;;;;;;;;;10054404;28;20045;-74
2023/10/15 00:39:09;;;;;;;12.27;6.13;;;;;;;;;;10050440;28;20113;-75
2023/10/15 00:44:06;;;;;;;13.95;6.60;;;;;;;;;;10051855;28;20111;-75
2023/10/15 00:49:09;;;;;;;10.07;6.40;;;;;;;;;;10050986;28;20424;-75
2023/10/15 00:54:09;;;;;;;8.07;5.82;;;;;;;;;;10051946;28;20121;-73
2023/10/15 00:59:08;;;;;;;15.90;6.65;;;;;;;;;;10054100;28;20041;-73
2023/10/15 01:04:01;;;;;;;13.48;5.50;;;;;;;;;;10054226;28;20095;-75
2023/10/15 01:08:53;;;;;;;11.20;6.38;;;;;;;;;;10055046;28;20064;-74
2023/10/15 01:13:45;;;;;;;14.90;6.50;;;;;;;;;;10059783;28;20049;-75
2023/10/15 01:18:37;;;;;;;13.35;7.65;;;;;;;;;;10059088;28;20140;-74
2023/10/15 01:23:37;;;;;;;11.07;6.15;;;;;;;;;;10057635;28;20041;-75
2023/10/15 01:28:38;;;;;;;11.30;5.28;;;;;;;;;;10060910;28;20033;-75
2023/10/15 01:33:30;;;;;;;11.45;5.93;;;;;;;;;;10056740;28;20049;-74
2023/10/15 01:38:27;;;;;;;7.18;6.10;;;;;;;;;;10058497;28;20127;-75
2023/10/15 01:43:20;;;;;;;10.00;5.88;;;;;;;;;;10058364;28;20119;-74
2023/10/15 01:48:46;;;;;;;10.07;5.25;;;;;;;;;;10057724;28;20108;-75
2023/10/15 01:53:34;;;;;;;9.67;5.90;;;;;;;;;;10057993;28;20061;-75
2023/10/15 01:58:32;;;;;;;10.05;5.78;;;;;;;;;;10056538;28;20051;-74
2023/10/15 02:03:25;;;;;;;;;;;;;;;;;;10057110;28;20057;-75
2023/10/15 02:08:23;;;;;;;12.88;6.10;;;;;;;;;;10055380;28;19921;-75
2023/10/15 02:13:16;;;;;;;9.88;5.70;;;;;;;;;;10072079;28;20380;-75
2023/10/15 02:18:18;;;;;;;10.00;6.00;;;;;;;;;;10054738;28;20034;-75
2023/10/15 02:23:11;;;;;;;11.75;5.70;;;;;;;;;;10057269;28;20452;-74
2023/10/15 02:28:04;;;;;;;9.70;5.45;;;;;;;;;;10055593;28;20111;-74
2023/10/15 02:32:56;;;;;;;10.65;6.38;;;;;;;;;;10055279;28;20041;-74
2023/10/15 02:37:48;;;;;;;10.73;5.85;;;;;;;;;;10055531;28;20141;-74
2023/10/15 02:42:41;;;;;;;10.20;5.82;;;;;;;;;;10052881;28;20046;-74
2023/10/15 02:47:42;;;;;;;7.45;5.75;;;;;;;;;;10054993;28;20164;-75
2023/10/15 02:52:43;;;;;;;11.07;6.32;;;;;;;;;;10053437;28;20077;-75
2023/10/15 02:57:41;;;;;;;10.10;6.57;;;;;;;;;;10055551;28;20069;-75
2023/10/15 03:02:42;;;;;;;13.18;7.53;;;;;;;;;;10054816;28;20049;-75
2023/10/15 03:07:34;;;;;;;12.93;6.45;;;;;;;;;;10055156;28;20059;-74
2023/10/15 03:12:33;;;;;;;12.57;6.03;;;;;;;;;;10053283;28;20103;-74
2023/10/15 03:17:25;;;;;;;12.95;6.18;;;;;;;;;;10054537;28;20041;-75
2023/10/15 03:22:17;;;;;;;12.40;6.35;;;;;;;;;;10055214;28;20046;-74
2023/10/15 03:27:10;;;;;;;9.07;6.40;;;;;;;;;;10053345;28;20037;-74
2023/10/15 03:32:09;;;;;;;10.52;6.43;;;;;;;;;;10053780;28;20178;-74
2023/10/15 03:37:02;;;;;;;8.75;7.13;;;;;;;;;;10049228;28;20071;-74
2023/10/15 03:42:09;;;;;;;12.00;8.23;;;;;;;;;;10054705;28;20041;-74
2023/10/15 03:47:05;;;;;;;17.52;7.60;;;;;;;;;;10052953;28;20056;-74
2023/10/15 03:51:57;;;;;;;9.82;8.35;;;;;;;;;;10055025;28;20071;-73
2023/10/15 03:56:51;;;;;;;14.75;9.48;;;;;;;;;;10051982;28;20049;-75
2023/10/15 04:01:47;;;;;;;13.52;11.10;;;;;;;;;;10056201;28;20132;-74
2023/10/15 04:06:39;;;;;;;23.65;10.13;;;;;;;;;;10050858;28;20053;-74
2023/10/15 04:11:45;;;;;;;19.88;11.73;;;;;;;;;;10052484;28;20748;-74
2023/10/15 04:16:37;;;;;;;18.92;10.25;;;;;;;;;;10050590;28;20041;-73
2023/10/15 04:21:28;;;;;;;15.13;11.18;;;;;;;;;;10053676;28;20099;-73
2023/10/15 04:26:23;;;;;;;15.18;11.20;;;;;;;;;;10051852;28;20041;-75
2023/10/15 04:31:24;;;;;;;14.40;9.50;;;;;;;;;;10053606;28;20042;-73
2023/10/15 04:36:19;;;;;;;13.15;11.52;;;;;;;;;;10051773;28;20095;-72
2023/10/15 04:41:11;;;;;;;21.83;12.68;;;;;;;;;;10054248;28;20037;-74
2023/10/15 04:46:07;;;;;;;16.77;12.75;;;;;;;;;;10059807;28;20056;-73
2023/10/15 04:51:15;;;;;;;15.48;11.85;;;;;;;;;;10058423;28;20037;-75
2023/10/15 04:56:06;;;;;;;14.15;10.75;;;;;;;;;;10059750;28;20148;-75
2023/10/15 05:00:59;;;;;;;16.77;11.23;;;;;;;;;;10058684;28;20045;-74
2023/10/15 05:05:51;;;;;;;18.30;13.77;;;;;;;;;;10042463;28;20055;-73
2023/10/15 05:10:45;;;;;;;23.98;13.75;;;;;;;;;;10068735;28;20045;-73
2023/10/15 05:15:39;;;;;;;16.58;12.95;;;;;;;;;;10069133;28;20100;-74
2023/10/15 05:20:33;;;;;;;18.20;14.15;;;;;;;;;;10068753;28;20057;-75
2023/10/15 05:25:25;;;;;;;27.48;14.75;;;;;;;;;;10068658;28;20077;-73
2023/10/15 05:30:18;;;;;;;16.80;13.07;;;;;;;;;;10048673;28;20499;-75
2023/10/15 05:35:10;;;;;;;27.45;15.52;;;;;;;;;;10031723;28;20042;-74
2023/10/15 05:40:03;;;;;;;18.48;13.93;;;;;;;;;;10030836;28;20362;-72
2023/10/15 05:44:56;;;;;;;20.77;15.57;;;;;;;;;;10034269;28;20054;-74
2023/10/15 05:49:48;;;;;;;34.25;15.68;;;;;;;;;;10032820;28;20046;-73
2023/10/15 05:54:41;;;;;;;24.20;14.85;;;;;;;;;;10034376;28;20057;-74
2023/10/15 05:59:36;;;;;;;18.75;13.57;;;;;;;;;;10031956;28;20053;-73
2023/10/15 06:04:28;;;;;;;25.75;13.90;;;;;;;;;;10040185;28;20067;-73
2023/10/15 06:09:20;;;;;;;20.58;14.25;;;;;;;;;;10060251;28;20471;-73
2023/10/15 06:14:12;;;;;;;22.88;14.40;;;;;;;;;;10067725;28;20045;-71
2023/10/15 06:19:04;;;;;;;20.50;15.15;;;;;;;;;;10062500;28;20132;-71
2023/10/15 06:23:55;;;;;;;18.42;13.55;;;;;;;;;;10069905;28;20068;-69
2023/10/15 06:28:47;;;;;;;22.15;14.70;;;;;;;;;;10075816;28;20049;-69
2023/10/15 06:33:40;;;;;;;20.17;14.27;;;;;;;;;;10053118;28;20057;-69
2023/10/15 06:38:33;;;;;;;18.23;13.68;;;;;;;;;;10066270;28;20060;-69
2023/10/15 06:43:25;;;;;;;18.75;13.48;;;;;;;;;;10062078;28;20049;-71
2023/10/15 06:48:17;;;;;;;16.10;14.10;;;;;;;;;;10066640;28;20042;-70
2023/10/15 06:53:08;;;;;;;17.70;14.10;;;;;;;;;;10065814;28;20045;-68
2023/10/15 06:58:01;;;;;;;25.10;13.95;;;;;;;;;;10066241;28;20080;-71
2023/10/15 07:02:54;;;;;;;32.60;14.05;;;;;;;;;;10066984;28;20053;-75
2023/10/15 07:07:48;;;;;;;18.95;12.40;;;;;;;;;;10046483;28;20053;-72
2023/10/15 07:12:40;;;;;;;20.83;13.98;;;;;;;;;;10028518;28;20056;-71
2023/10/15 07:17:32;;;;;;;28.50;14.23;;;;;;;;;;10030040;28;20480;-72
2023/10/15 07:22:24;;;;;;;20.23;14.07;;;;;;;;;;10043286;28;20045;-74
2023/10/15 07:27:17;;;;;;;16.52;12.07;;;;;;;;;;10031674;28;20137;-78
2023/10/15 07:32:09;;;;;;;19.15;12.52;;;;;;;;;;10025654;28;20920;-78
2023/10/15 07:37:01;;;;;;;20.65;12.93;;;;;;;;;;10026059;28;20132;-78
2023/10/15 07:41:53;;;;;;;26.33;14.15;;;;;;;;;;10026445;28;20045;-77
2023/10/15 07:46:45;;;;;;;15.23;11.13;;;;;;;;;;10026897;28;20049;-78
2023/10/15 07:51:37;;;;;;;19.30;12.10;;;;;;;;;;10025713;28;20132;-78
2023/10/15 07:56:31;;;;;;;19.25;17.33;;;;;;;;;;10040230;28;20100;-78
2023/10/15 08:01:25;;;;;;;17.83;15.70;;;;;;;;;;10026457;28;20100;-78
2023/10/15 08:06:17;;;;;;;21.25;18.83;;;;;;;;;;10025957;28;20727;-78
2023/10/15 08:11:10;;;;;;;22.00;16.40;;;;;;;;;;10024909;28;20053;-77
2023/10/15 08:16:02;;;;;;;19.67;17.67;;;;;;;;;;10025155;28;20081;-78
2023/10/15 08:20:54;;;;;;;25.98;22.38;;;;;;;;;;10025728;28;20046;-77
2023/10/15 08:25:48;;;;;;;39.90;29.88;;;;;;;;;;10023790;28;20336;-78
2023/10/15 08:30:41;;;;;;;29.83;26.98;;;;;;;;;;10027370;28;20042;-79
2023/10/15 08:35:33;;;;;;;36.45;27.88;;;;;;;;;;10025489;28;20042;-79
2023/10/15 08:40:26;;;;;;;26.73;23.92;;;;;;;;;;10025240;28;20038;-77
2023/10/15 08:45:22;;;;;;;24.23;21.88;;;;;;;;;;10038574;28;20049;-79
2023/10/15 08:50:16;;;;;;;23.73;21.35;;;;;;;;;;10026123;28;20042;-77
2023/10/15 08:55:09;;;;;;;20.20;17.98;;;;;;;;;;10024408;28;20045;-77
2023/10/15 09:00:02;;;;;;;23.50;19.38;;;;;;;;;;10024615;28;20104;-76
2023/10/15 09:05:05;;;;;;;21.85;17.08;;;;;;;;;;10023930;28;20369;-78
2023/10/15 09:09:57;;;;;;;19.90;17.85;;;;;;;;;;10039601;28;20049;-78
2023/10/15 09:14:48;;;;;;;20.70;18.30;;;;;;;;;;10023733;28;20200;-79
2023/10/15 09:19:42;;;;;;;22.73;17.92;;;;;;;;;;10029060;28;20065;-77
2023/10/15 09:24:36;;;;;;;22.67;18.85;;;;;;;;;;10037822;28;20046;-77
2023/10/15 09:29:30;;;;;;;19.98;16.70;;;;;;;;;;10026784;28;20108;-77
2023/10/15 09:34:26;;;;;;;22.67;18.05;;;;;;;;;;10030678;28;20407;-78
2023/10/15 09:39:18;;;;;;;24.88;19.80;;;;;;;;;;10030890;28;20136;-78
2023/10/15 09:44:14;;;;;;;24.75;19.17;;;;;;;;;;10030865;28;20034;-78
2023/10/15 09:49:07;;;;;;;23.50;19.13;;;;;;;;;;10045671;28;20125;-77
2023/10/15 09:53:59;;;;;;;30.85;21.58;;;;;;;;;;10028350;28;20046;-78
2023/10/15 09:58:51;;;;;;;24.90;20.92;;;;;;;;;;10045804;28;20092;-76
2023/10/15 10:03:48;;;;;;;22.90;20.48;;;;;;;;;;10028966;28;20050;-77
2023/10/15 10:09:02;;;;;;;22.52;20.20;;;;;;;;;;10030077;28;20034;-77
2023/10/15 10:14:19;;;;;;;34.72;21.75;;;;;;;;;;10029116;28;20049;-75
2023/10/15 10:19:11;;;;;;;21.50;19.58;;;;;;;;;;10043917;28;20037;-77
2023/10/15 10:24:08;;;;;;;27.92;20.30;;;;;;;;;;10045359;28;20041;-77
2023/10/15 10:29:02;;;;;;;22.20;19.48;;;;;;;;;;10043455;28;20443;-75
2023/10/15 10:33:54;;;;;;;21.35;18.90;;;;;;;;;;10028342;28;20068;-78
2023/10/15 10:38:57;;;;;;;20.90;18.92;;;;;;;;;;10064104;28;20053;-78
2023/10/15 10:43:49;;;;;;;17.33;15.77;;;;;;;;;;10056446;28;20468;-77
2023/10/15 10:49:09;;;;;;;19.23;17.10;;;;;;;;;;10028672;28;20042;-77
2023/10/15 10:54:03;;;;;;;20.92;17.70;;;;;;;;;;10025700;28;20125;-77
2023/10/15 10:58:58;;;;;;;21.85;16.00;;;;;;;;;;10036432;28;20046;-76
2023/10/15 11:03:52;;;;;;;16.92;13.90;;;;;;;;;;10042783;28;20049;-78
2023/10/15 11:08:47;;;;;;;21.25;16.10;;;;;;;;;;10041875;28;20575;-78
2023/10/15 11:13:39;;;;;;;17.98;15.80;;;;;;;;;;10029424;28;20168;-78
2023/10/15 11:18:34;;;;;;;20.67;16.85;;;;;;;;;;10027586;28;20048;-78
2023/10/15 11:23:26;;;;;;;27.75;17.52;;;;;;;;;;10025941;28;20070;-78
2023/10/15 11:28:18;;;;;;;20.38;15.32;;;;;;;;;;10027586;28;20046;-76
2023/10/15 11:33:12;;;;;;;20.15;14.88;;;;;;;;;;10039762;28;20049;-75
2023/10/15 11:38:11;;;;;;;15.82;14.00;;;;;;;;;;10024168;28;20085;-77
2023/10/15 11:43:04;;;;;;;19.48;12.88;;;;;;;;;;10039300;28;20061;-73
2023/10/15 11:47:58;;;;;;;19.50;12.63;;;;;;;;;;10026286;28;20079;-79
2023/10/15 11:52:52;;;;;;;14.48;12.07;;;;;;;;;;10025506;28;20443;-68
2023/10/15 11:57:49;;;;;;;18.70;11.82;;;;;;;;;;10027513;28;20093;-71
2023/10/15 12:02:41;;;;;;;12.75;10.13;;;;;;;;;;10030554;28;20046;-72
2023/10/15 12:07:33;;;;;;;15.02;13.27;;;;;;;;;;10043728;28;20479;-68
2023/10/15 12:12:26;;;;;;;21.63;12.73;;;;;;;;;;10028996;28;20384;-72
2023/10/15 12:17:18;;;;;;;21.75;12.63;;;;;;;;;;10026252;28;20041;-71
2023/10/15 12:22:14;;;;;;;16.35;10.43;;;;;;;;;;10036029;28;20447;-70
2023/10/15 12:27:07;;;;;;;15.68;12.48;;;;;;;;;;10034884;28;20038;-70
2023/10/15 12:31:58;;;;;;;16.75;12.52;;;;;;;;;;10056598;28;20417;-71
2023/10/15 12:36:52;;;;;;;13.80;11.18;;;;;;;;;;10057010;28;20038;-73
2023/10/15 12:41:44;;;;;;;14.60;10.13;;;;;;;;;;10051808;28;20076;-70
2023/10/15 12:46:37;;;;;;;12.02;8.50;;;;;;;;;;10055569;28;20463;-71
2023/10/15 12:51:29;;;;;;;13.35;8.80;;;;;;;;;;10062213;28;20049;-69
2023/10/15 12:56:22;;;;;;;10.77;9.40;;;;;;;;;;10062167;28;20053;-72
2023/10/15 13:01:19;;;;;;;11.20;9.95;;;;;;;;;;10060542;28;20040;-71
2023/10/15 13:06:12;;;;;;;11.33;9.07;;;;;;;;;;10066623;28;20042;-70
2023/10/15 13:11:04;;;;;;;12.80;9.20;;;;;;;;;;10067914;28;20060;-71
2023/10/15 13:15:56;;;;;;;10.18;8.27;;;;;;;;;;10069013;28;20129;-71
2023/10/15 13:20:48;;;;;;;26.13;9.32;;;;;;;;;;10069516;28;20060;-71
2023/10/15 13:25:40;;;;;;;19.30;8.90;;;;;;;;;;10055921;28;20053;-71
2023/10/15 13:30:32;;;;;;;14.73;7.88;;;;;;;;;;10041975;28;20033;-70
2023/10/15 13:35:24;;;;;;;13.15;6.93;;;;;;;;;;10063917;28;20107;-71
2023/10/15 13:40:18;;;;;;;12.55;6.57;;;;;;;;;;10064944;28;20395;-69
2023/10/15 13:45:10;;;;;;;14.10;8.95;;;;;;;;;;10052220;28;20060;-70
2023/10/15 13:50:12;;;;;;;12.23;7.88;;;;;;;;;;10067332;28;20085;-68
2023/10/15 13:55:07;;;;;;;15.73;7.85;;;;;;;;;;10066773;28;20136;-73
2023/10/15 13:59:59;;;;;;;10.48;6.78;;;;;;;;;;10068829;28;20129;-70
2023/10/15 14:04:53;;;;;;;8.25;6.45;;;;;;;;;;10068550;28;20053;-72
2023/10/15 14:09:45;;;;;;;10.13;6.10;;;;;;;;;;10066743;28;20041;-71
2023/10/15 14:14:37;;;;;;;12.27;7.50;;;;;;;;;;10062820;28;20469;-70
2023/10/15 14:19:30;;;;;;;10.93;5.63;;;;;;;;;;10063691;28;20519;-71
2023/10/15 14:24:22;;;;;;;16.60;7.43;;;;;;;;;;10081683;28;20087;-71
2023/10/15 14:29:15;;;;;;;14.02;6.90;;;;;;;;;;10069889;28;20072;-71
2023/10/15 14:34:10;;;;;;;10.52;6.03;;;;;;;;;;10067718;28;20088;-71
2023/10/15 14:39:02;;;;;;;7.72;5.00;;;;;;;;;;10066961;28;20054;-70
2023/10/15 14:43:54;;;;;;;6.40;4.80;;;;;;;;;;10055976;28;20132;-71
2023/10/15 14:48:46;;;;;;;12.90;5.10;;;;;;;;;;10066609;28;20043;-71
2023/10/15 14:53:39;;;;;;;11.35;5.35;;;;;;;;;;10056299;28;20045;-70
2023/10/15 14:58:31;;;;;;;6.57;4.82;;;;;;;;;;10047071;28;20076;-71
2023/10/15 15:03:23;;;;;;;7.70;5.28;;;;;;;;;;10051205;28;20122;-72
2023/10/15 15:08:15;;;;;;;11.20;5.20;;;;;;;;;;10056430;28;20050;-71
2023/10/15 15:13:07;;;;;;;12.32;5.25;;;;;;;;;;10045667;28;20056;-72
2023/10/15 15:17:59;;;;;;;8.40;5.10;;;;;;;;;;10031406;28;20050;-71
2023/10/15 15:22:51;;;;;;;7.13;5.28;;;;;;;;;;10057243;28;20069;-73
2023/10/15 15:27:43;;;;;;;11.90;5.53;;;;;;;;;;10024049;28;20088;-77
2023/10/15 15:32:36;;;;;;;6.97;4.93;;;;;;;;;;10032923;28;20041;-77
2023/10/15 15:37:29;;;;;;;8.68;5.32;;;;;;;;;;10061391;28;20792;-76
2023/10/15 15:42:21;;;;;;;7.65;4.95;;;;;;;;;;10065178;28;20069;-76
2023/10/15 15:47:15;;;;;;;9.00;4.70;;;;;;;;;;10064626;28;20049;-77
2023/10/15 15:52:09;;;;;;;7.10;4.68;;;;;;;;;;10044642;28;20468;-77
2023/10/15 15:57:03;;;;;;;8.90;5.88;;;;;;;;;;10029641;28;20069;-75
2023/10/15 16:01:55;;;;;;;8.93;5.57;;;;;;;;;;10039478;28;20100;-76
2023/10/15 16:06:46;;;;;;;9.57;6.00;;;;;;;;;;10080017;28;20049;-76
2023/10/15 16:11:38;;;;;;;10.35;5.75;;;;;;;;;;10075401;28;20057;-75
2023/10/15 16:16:30;;;;;;;8.65;5.97;;;;;;;;;;10064689;28;20072;-75
2023/10/15 16:21:22;;;;;;;10.13;6.18;;;;;;;;;;10064980;28;20598;-77
2023/10/15 16:26:14;;;;;;;8.38;6.10;;;;;;;;;;10055662;28;20045;-76
2023/10/15 16:31:06;;;;;;;12.52;6.57;;;;;;;;;;10062657;28;20041;-75
2023/10/15 16:35:58;;;;;;;11.65;6.05;;;;;;;;;;10062420;28;20163;-76
2023/10/15 16:40:50;;;;;;;20.63;3.58;;;;;;;;;;10043974;28;20049;-74
2023/10/15 16:45:42;;;;;;;14.65;4.72;;;;;;;;;;10037997;28;20061;-72
2023/10/15 16:50:34;;;;;;;15.05;2.70;;;;;;;;;;10054374;28;20099;-73
2023/10/15 16:55:26;;;;;;;14.07;3.63;;;;;;;;;;10041777;28;20353;-72
2023/10/15 17:00:19;;;;;;;4.88;1.95;;;;;;;;;;10037373;28;20124;-72
2023/10/15 17:05:11;;;;;;;10.18;2.42;;;;;;;;;;10035778;28;20057;-73
2023/10/15 17:10:03;;;;;;;10.50;2.40;;;;;;;;;;10042260;28;20533;-73
2023/10/15 17:14:55;;;;;;;7.47;2.20;;;;;;;;;;10063951;28;20388;-73
2023/10/15 17:19:47;;;;;;;10.98;2.60;;;;;;;;;;10056975;28;20365;-72
2023/10/15 17:24:40;;;;;;;9.05;2.65;;;;;;;;;;10056729;28;20046;-71
2023/10/15 17:29:32;;;;;;;14.20;2.30;;;;;;;;;;10056312;28;20120;-70
2023/10/15 17:34:28;;;;;;;9.10;2.65;;;;;;;;;;10070208;28;20085;-72
2023/10/15 17:39:20;;;;;;;7.72;2.28;;;;;;;;;;10069233;28;20046;-71
2023/10/15 17:44:14;;;;;;;13.35;3.55;;;;;;;;;;10068681;28;20041;-72
2023/10/15 17:49:06;;;;;;;8.50;2.83;;;;;;;;;;10064714;28;20133;-72
2023/10/15 17:53:59;;;;;;;10.07;3.10;;;;;;;;;;10061055;28;20041;-71
2023/10/15 17:58:51;;;;;;;11.13;3.50;;;;;;;;;;10068544;28;20128;-72
2023/10/15 18:03:44;;;;;;;8.48;2.63;;;;;;;;;;10067789;28;20049;-72
2023/10/15 18:08:36;;;;;;;16.05;3.10;;;;;;;;;;10068402;28;21038;-72
2023/10/15 18:13:28;;;;;;;10.70;3.83;;;;;;;;;;10067641;28;20045;-72
2023/10/15 18:18:20;;;;;;;8.80;2.33;;;;;;;;;;10047648;28;20137;-72
2023/10/15 18:23:14;;;;;;;3.42;2.17;;;;;;;;;;10047811;28;20041;-72
2023/10/15 18:28:08;;;;;;;17.42;5.95;;;;;;;;;;10042079;28;20441;-72
2023/10/15 18:33:00;;;;;;;6.30;2.60;;;;;;;;;;10051445;28;20095;-72
2023/10/15 18:37:52;;;;;;;15.20;3.45;;;;;;;;;;10042191;28;20041;-73
2023/10/15 18:42:44;;;;;;;7.65;3.40;;;;;;;;;;10034337;28;20107;-70
2023/10/15 18:47:36;;;;;;;6.38;2.88;;;;;;;;;;10039653;28;20044;-73
2023/10/15 18:52:28;;;;;;;6.93;2.75;;;;;;;;;;10033186;28;20444;-73
2023/10/15 18:57:20;;;;;;;12.65;3.13;;;;;;;;;;10033866;28;20100;-73
2023/10/15 19:02:13;;;;;;;7.82;2.65;;;;;;;;;;10033572;28;20084;-73
2023/10/15 19:07:05;;;;;;;4.55;2.20;;;;;;;;;;10045653;28;20037;-73
2023/10/15 19:11:56;;;;;;;6.70;2.65;;;;;;;;;;10037572;28;20155;-72
2023/10/15 19:16:49;;;;;;;10.70;2.22;;;;;;;;;;10040694;28;20050;-73
2023/10/15 19:21:41;;;;;;;12.27;3.25;;;;;;;;;;10054958;28;20140;-73
2023/10/15 19:26:33;;;;;;;8.05;3.95;;;;;;;;;;10064656;28;20037;-73
2023/10/15 19:31:25;;;;;;;10.40;3.72;;;;;;;;;;10064403;28;20045;-73
2023/10/15 19:36:17;;;;;;;7.65;3.10;;;;;;;;;;10040543;28;20042;-73
2023/10/15 19:41:09;;;;;;;5.47;3.20;;;;;;;;;;10040117;28;20961;-74
2023/10/15 19:46:01;;;;;;;4.80;2.30;;;;;;;;;;10061125;28;20467;-73
2023/10/15 19:50:57;;;;;;;4.43;1.77;;;;;;;;;;10041990;28;20045;-72
2023/10/15 19:55:50;;;;;;;8.02;2.20;;;;;;;;;;10027083;28;20129;-73
2023/10/15 20:00:43;;;;;;;5.18;1.63;;;;;;;;;;10051291;28;20415;-73
2023/10/15 20:05:35;;;;;;;7.63;1.65;;;;;;;;;;10048177;28;20050;-72
2023/10/15 20:10:28;;;;;;;5.13;1.60;;;;;;;;;;10048499;28;20052;-72
2023/10/15 20:15:19;;;;;;;6.25;1.80;;;;;;;;;;10037510;28;20076;-73
2023/10/15 20:20:12;;;;;;;4.28;1.52;;;;;;;;;;10056189;28;20037;-73
2023/10/15 20:25:08;;;;;;;4.50;1.30;;;;;;;;;;10061256;28;20045;-73
2023/10/15 20:29:59;;;;;;;4.00;1.60;;;;;;;;;;10059361;28;20037;-73
2023/10/15 20:34:51;;;;;;;6.13;1.60;;;;;;;;;;10059265;28;20053;-73
2023/10/15 20:39:47;;;;;;;6.90;1.60;;;;;;;;;;10059255;28;20128;-72
2023/10/15 20:44:39;;;;;;;10.75;1.48;;;;;;;;;;10058981;28;20045;-71
2023/10/15 20:49:31;;;;;;;3.45;1.50;;;;;;;;;;10058870;28;20061;-73
2023/10/15 20:54:23;;;;;;;6.88;1.40;;;;;;;;;;10060497;28;20042;-72
2023/10/15 20:59:15;;;;;;;5.30;1.88;;;;;;;;;;10062944;28;20353;-72
2023/10/15 21:04:07;;;;;;;3.28;1.00;;;;;;;;;;10062689;28;20041;-72
2023/10/15 21:08:59;;;;;;;3.15;1.30;;;;;;;;;;10060881;28;20053;-72
2023/10/15 21:13:52;;;;;;;8.88;1.67;;;;;;;;;;10060529;28;20132;-73
2023/10/15 21:18:44;;;;;;;5.93;2.20;;;;;;;;;;10061803;28;20056;-73
2023/10/15 21:23:36;;;;;;;7.15;1.40;;;;;;;;;;10060771;28;20041;-71
2023/10/15 21:28:28;;;;;;;7.50;1.17;;;;;;;;;;10069309;28;20037;-73
2023/10/15 21:33:20;;;;;;;3.58;1.30;;;;;;;;;;10068542;28;20038;-73
2023/10/15 21:38:12;;;;;;;3.53;1.15;;;;;;;;;;10067152;28;20500;-72
2023/10/15 21:43:04;;;;;;;6.25;1.17;;;;;;;;;;10068728;28;20148;-73
2023/10/15 21:47:56;;;;;;;4.38;1.10;;;;;;;;;;10067428;28;20086;-72
2023/10/15 21:52:48;;;;;;;8.35;1.50;;;;;;;;;;10064470;28;20045;-72
2023/10/15 21:57:40;;;;;;;5.78;1.83;;;;;;;;;;10066251;28;20107;-72
2023/10/15 22:02:32;;;;;;;4.90;1.25;;;;;;;;;;10068256;28;20057;-71
2023/10/15 22:07:24;;;;;;;8.48;1.65;;;;;;;;;;10068464;28;20051;-71
2023/10/15 22:12:18;;;;;;;3.35;1.33;;;;;;;;;;10068354;28;20099;-73
2023/10/15 22:17:14;;;;;;;3.55;1.25;;;;;;;;;;10067058;28;20049;-73
2023/10/15 22:22:10;;;;;;;4.07;1.17;;;;;;;;;;10066777;28;20105;-73
2023/10/15 22:27:12;;;;;;;2.95;1.10;;;;;;;;;;10068087;28;20145;-72
2023/10/15 22:32:05;;;;;;;3.67;1.00;;;;;;;;;;10067382;28;20041;-73
2023/10/15 22:36:57;;;;;;;5.40;2.95;;;;;;;;;;10066256;28;20049;-72
2023/10/15 22:41:54;;;;;;;1.67;0.90;;;;;;;;;;10067482;28;20439;-73
2023/10/15 22:46:46;;;;;;;1.63;0.88;;;;;;;;;;10066763;28;20048;-72
2023/10/15 22:51:38;;;;;;;6.93;1.05;;;;;;;;;;10066304;28;20148;-73
2023/10/15 22:56:30;;;;;;;3.17;0.90;;;;;;;;;;10066388;28;20124;-72
2023/10/15 23:01:22;;;;;;;1.50;0.80;;;;;;;;;;10065682;28;20446;-72
2023/10/15 23:06:14;;;;;;;1.33;0.73;;;;;;;;;;10066858;28;20080;-73
2023/10/15 23:11:06;;;;;;;1.75;0.80;;;;;;;;;;10065937;28;20471;-75
2023/10/15 23:16:00;;;;;;;2.25;0.80;;;;;;;;;;10065613;28;20467;-73
2023/10/15 23:20:52;;;;;;;2.90;0.95;;;;;;;;;;10065919;28;20099;-72
2023/10/15 23:25:44;;;;;;;1.60;0.90;;;;;;;;;;10064837;28;20041;-73
2023/10/15 23:30:41;;;;;;;3.88;1.08;;;;;;;;;;10064685;28;20077;-72
2023/10/15 23:35:33;;;;;;;2.55;1.10;;;;;;;;;;10064915;28;20423;-73
2023/10/15 23:40:29;;;;;;;6.07;1.17;;;;;;;;;;10064523;28;20037;-72
2023/10/15 23:45:27;;;;;;;3.13;1.67;;;;;;;;;;10064006;28;20077;-72
2023/10/15 23:50:19;;;;;;;4.77;2.00;;;;;;;;;;10065264;28;20049;-73
2023/10/15 23:55:17;;;;;;;2.50;1.55;;;;;;;;;;10063970;28;20314;-73
